sensor_id;sensor_type;location;lat;lon;timestamp;pressure;altitude;pressure_sealevel;temperature;humidity
18527;BME280;9393;42.158;24.748;2023-02-14T00:02:18;100981.94;;;5.84;53.58
18527;BME280;9393;42.158;24.748;2023-02-14T00:05:22;100978.22;;;5.72;53.82
18527;BME280;9393;42.158;24.748;2023-02-14T00:08:26;100987.97;;;6.01;53.16
18527;BME280;9393;42.158;24.748;2023-02-14T00:11:30;100970.81;;;6.16;52.50
18527;BME280;9393;42.158;24.748;2023-02-14T00:14:35;100964.06;;;6.14;52.60
18527;BME280;9393;42.158;24.748;2023-02-14T00:17:56;100969.75;;;6.20;52.24
18527;BME280;9393;42.158;24.748;2023-02-14T00:21:01;100980.31;;;6.33;51.97
18527;BME280;9393;42.158;24.748;2023-02-14T00:24:08;100983.75;;;6.33;51.92
18527;BME280;9393;42.158;24.748;2023-02-14T00:27:12;100994.13;;;6.16;51.95
18527;BME280;9393;42.158;24.748;2023-02-14T00:30:17;100986.06;;;6.05;52.46
18527;BME280;9393;42.158;24.748;2023-02-14T00:33:21;100982.31;;;6.10;51.91
18527;BME280;9393;42.158;24.748;2023-02-14T00:36:25;100982.94;;;6.16;52.03
18527;BME280;9393;42.158;24.748;2023-02-14T00:39:29;100975.03;;;6.01;52.04
18527;BME280;9393;42.158;24.748;2023-02-14T00:42:33;100973.50;;;5.97;52.40
18527;BME280;9393;42.158;24.748;2023-02-14T00:45:38;100980.69;;;5.92;52.08
18527;BME280;9393;42.158;24.748;2023-02-14T00:48:42;100969.19;;;6.31;51.42
18527;BME280;9393;42.158;24.748;2023-02-14T00:51:46;100981.59;;;5.91;52.45
18527;BME280;9393;42.158;24.748;2023-02-14T00:54:49;100986.75;;;6.41;51.22
18527;BME280;9393;42.158;24.748;2023-02-14T00:57:53;100987.53;;;6.43;51.16
18527;BME280;9393;42.158;24.748;2023-02-14T01:00:58;100977.59;;;6.51;50.71
18527;BME280;9393;42.158;24.748;2023-02-14T01:04:03;100992.44;;;6.65;50.29
18527;BME280;9393;42.158;24.748;2023-02-14T01:07:07;100981.84;;;6.52;50.74
18527;BME280;9393;42.158;24.748;2023-02-14T01:10:11;100975.56;;;6.41;50.67
18527;BME280;9393;42.158;24.748;2023-02-14T01:13:15;100973.84;;;6.57;50.22
18527;BME280;9393;42.158;24.748;2023-02-14T01:16:22;100971.19;;;6.74;49.88
18527;BME280;9393;42.158;24.748;2023-02-14T01:19:29;100965.09;;;6.75;49.41
18527;BME280;9393;42.158;24.748;2023-02-14T01:22:34;100956.38;;;6.76;49.85
18527;BME280;9393;42.158;24.748;2023-02-14T01:25:38;100962.47;;;6.59;49.93
18527;BME280;9393;42.158;24.748;2023-02-14T01:28:44;100947.59;;;6.63;49.64
18527;BME280;9393;42.158;24.748;2023-02-14T01:31:49;100947.00;;;6.58;49.70
18527;BME280;9393;42.158;24.748;2023-02-14T01:34:53;100946.75;;;6.47;49.89
18527;BME280;9393;42.158;24.748;2023-02-14T01:37:57;100956.50;;;6.09;50.82
18527;BME280;9393;42.158;24.748;2023-02-14T01:41:00;100963.47;;;6.24;50.54
18527;BME280;9393;42.158;24.748;2023-02-14T01:44:06;100956.09;;;6.34;50.78
18527;BME280;9393;42.158;24.748;2023-02-14T01:47:12;100956.72;;;6.22;50.82
18527;BME280;9393;42.158;24.748;2023-02-14T01:50:20;100949.72;;;6.24;50.78
18527;BME280;9393;42.158;24.748;2023-02-14T01:53:26;100958.47;;;6.21;50.55
18527;BME280;9393;42.158;24.748;2023-02-14T01:56:35;100949.16;;;6.34;50.52
18527;BME280;9393;42.158;24.748;2023-02-14T01:59:43;100935.03;;;6.40;50.18
18527;BME280;9393;42.158;24.748;2023-02-14T02:02:51;100919.41;;;6.08;50.82
18527;BME280;9393;42.158;24.748;2023-02-14T02:05:59;100927.06;;;5.94;51.36
18527;BME280;9393;42.158;24.748;2023-02-14T02:09:11;100922.41;;;6.34;50.36
18527;BME280;9393;42.158;24.748;2023-02-14T02:12:16;100914.19;;;6.41;50.17
18527;BME280;9393;42.158;24.748;2023-02-14T02:15:22;100913.09;;;6.30;50.60
18527;BME280;9393;42.158;24.748;2023-02-14T02:18:39;100916.59;;;6.29;50.41
18527;BME280;9393;42.158;24.748;2023-02-14T02:22:18;100907.75;;;6.33;49.87
18527;BME280;9393;42.158;24.748;2023-02-14T02:25:41;100903.94;;;6.40;49.89
18527;BME280;9393;42.158;24.748;2023-02-14T02:33:06;100906.53;;;6.55;49.62
18527;BME280;9393;42.158;24.748;2023-02-14T02:36:45;100896.06;;;6.26;50.01
18527;BME280;9393;42.158;24.748;2023-02-14T02:40:05;100900.75;;;6.50;49.54
18527;BME280;9393;42.158;24.748;2023-02-14T02:43:20;100903.94;;;6.55;49.41
18527;BME280;9393;42.158;24.748;2023-02-14T02:46:33;100903.94;;;6.71;49.10
18527;BME280;9393;42.158;24.748;2023-02-14T02:49:55;100910.63;;;6.75;49.63
18527;BME280;9393;42.158;24.748;2023-02-14T02:53:24;100903.09;;;6.71;49.35
18527;BME280;9393;42.158;24.748;2023-02-14T02:56:31;100901.25;;;6.73;49.45
18527;BME280;9393;42.158;24.748;2023-02-14T02:59:48;100895.91;;;6.44;50.38
18527;BME280;9393;42.158;24.748;2023-02-14T03:02:55;100890.78;;;6.58;49.71
18527;BME280;9393;42.158;24.748;2023-02-14T03:06:17;100886.22;;;6.64;49.64
18527;BME280;9393;42.158;24.748;2023-02-14T03:09:53;100886.03;;;6.35;50.20
18527;BME280;9393;42.158;24.748;2023-02-14T03:16:48;100879.88;;;6.05;50.84
18527;BME280;9393;42.158;24.748;2023-02-14T03:20:05;100871.50;;;6.33;50.29
18527;BME280;9393;42.158;24.748;2023-02-14T03:23:20;100872.34;;;6.00;50.84
18527;BME280;9393;42.158;24.748;2023-02-14T03:26:32;100873.13;;;6.02;51.03
18527;BME280;9393;42.158;24.748;2023-02-14T03:29:48;100862.84;;;5.84;51.20
18527;BME280;9393;42.158;24.748;2023-02-14T03:33:00;100868.34;;;5.95;50.70
18527;BME280;9393;42.158;24.748;2023-02-14T03:36:09;100847.69;;;5.76;51.43
18527;BME280;9393;42.158;24.748;2023-02-14T03:39:19;100858.88;;;5.94;51.27
18527;BME280;9393;42.158;24.748;2023-02-14T03:42:28;100863.72;;;5.67;51.44
18527;BME280;9393;42.158;24.748;2023-02-14T03:45:39;100859.25;;;6.03;50.56
18527;BME280;9393;42.158;24.748;2023-02-14T03:48:46;100860.97;;;5.87;50.77
18527;BME280;9393;42.158;24.748;2023-02-14T03:51:55;100854.88;;;5.71;51.43
18527;BME280;9393;42.158;24.748;2023-02-14T03:55:02;100870.72;;;5.82;51.42
18527;BME280;9393;42.158;24.748;2023-02-14T03:58:13;100874.81;;;5.69;51.51
18527;BME280;9393;42.158;24.748;2023-02-14T04:01:21;100873.06;;;5.87;51.50
18527;BME280;9393;42.158;24.748;2023-02-14T04:04:27;100881.22;;;5.96;51.02
18527;BME280;9393;42.158;24.748;2023-02-14T04:07:43;100872.53;;;5.80;51.32
18527;BME280;9393;42.158;24.748;2023-02-14T04:10:48;100865.66;;;5.79;51.41
18527;BME280;9393;42.158;24.748;2023-02-14T04:13:53;100851.47;;;6.03;50.90
18527;BME280;9393;42.158;24.748;2023-02-14T04:16:57;100857.09;;;6.12;50.60
18527;BME280;9393;42.158;24.748;2023-02-14T04:20:18;100845.72;;;5.98;50.90
18527;BME280;9393;42.158;24.748;2023-02-14T04:23:22;100842.03;;;6.02;50.91
18527;BME280;9393;42.158;24.748;2023-02-14T04:26:26;100841.16;;;5.86;50.83
18527;BME280;9393;42.158;24.748;2023-02-14T04:29:31;100835.34;;;5.98;50.63
18527;BME280;9393;42.158;24.748;2023-02-14T04:32:34;100824.81;;;6.01;50.70
18527;BME280;9393;42.158;24.748;2023-02-14T04:35:38;100829.34;;;5.98;50.66
18527;BME280;9393;42.158;24.748;2023-02-14T04:38:42;100820.50;;;6.02;50.22
18527;BME280;9393;42.158;24.748;2023-02-14T04:41:46;100820.34;;;5.72;50.89
18527;BME280;9393;42.158;24.748;2023-02-14T04:44:51;100810.63;;;5.93;50.13
18527;BME280;9393;42.158;24.748;2023-02-14T04:47:55;100807.56;;;5.85;50.57
18527;BME280;9393;42.158;24.748;2023-02-14T04:50:58;100809.53;;;5.97;49.96
18527;BME280;9393;42.158;24.748;2023-02-14T04:54:02;100811.81;;;6.03;49.63
18527;BME280;9393;42.158;24.748;2023-02-14T04:57:06;100798.94;;;6.01;49.58
18527;BME280;9393;42.158;24.748;2023-02-14T05:00:12;100801.72;;;5.81;49.74
18527;BME280;9393;42.158;24.748;2023-02-14T05:03:16;100799.59;;;6.05;49.49
18527;BME280;9393;42.158;24.748;2023-02-14T05:06:20;100788.94;;;5.78;50.14
18527;BME280;9393;42.158;24.748;2023-02-14T05:09:24;100785.19;;;5.84;50.12
18527;BME280;9393;42.158;24.748;2023-02-14T05:12:27;100766.22;;;5.68;50.78
18527;BME280;9393;42.158;24.748;2023-02-14T05:15:32;100774.13;;;5.65;50.73
18527;BME280;9393;42.158;24.748;2023-02-14T05:18:39;100780.91;;;5.67;50.76
18527;BME280;9393;42.158;24.748;2023-02-14T05:21:43;100782.09;;;5.77;50.46
18527;BME280;9393;42.158;24.748;2023-02-14T05:24:47;100790.53;;;5.81;50.58
18527;BME280;9393;42.158;24.748;2023-02-14T05:27:50;100797.22;;;5.85;50.22
18527;BME280;9393;42.158;24.748;2023-02-14T05:30:55;100801.50;;;5.86;50.70
18527;BME280;9393;42.158;24.748;2023-02-14T05:34:00;100800.81;;;5.82;50.56
18527;BME280;9393;42.158;24.748;2023-02-14T05:37:03;100794.19;;;5.77;51.01
18527;BME280;9393;42.158;24.748;2023-02-14T05:40:08;100796.06;;;5.90;50.98
18527;BME280;9393;42.158;24.748;2023-02-14T05:43:14;100789.28;;;5.72;51.31
18527;BME280;9393;42.158;24.748;2023-02-14T05:46:19;100792.81;;;5.87;50.69
18527;BME280;9393;42.158;24.748;2023-02-14T05:49:23;100791.53;;;5.78;51.22
18527;BME280;9393;42.158;24.748;2023-02-14T05:52:27;100781.84;;;5.82;51.19
18527;BME280;9393;42.158;24.748;2023-02-14T05:55:30;100783.25;;;5.72;51.77
18527;BME280;9393;42.158;24.748;2023-02-14T05:58:34;100770.44;;;5.86;51.39
18527;BME280;9393;42.158;24.748;2023-02-14T06:01:39;100770.97;;;5.75;51.70
18527;BME280;9393;42.158;24.748;2023-02-14T06:04:43;100771.88;;;5.91;50.88
18527;BME280;9393;42.158;24.748;2023-02-14T06:07:47;100775.06;;;5.96;50.77
18527;BME280;9393;42.158;24.748;2023-02-14T06:10:52;100776.78;;;6.12;50.50
18527;BME280;9393;42.158;24.748;2023-02-14T06:13:56;100779.13;;;6.32;49.88
18527;BME280;9393;42.158;24.748;2023-02-14T06:17:02;100784.09;;;6.66;49.23
18527;BME280;9393;42.158;24.748;2023-02-14T06:20:07;100774.91;;;6.90;48.51
18527;BME280;9393;42.158;24.748;2023-02-14T06:23:12;100786.50;;;6.85;48.57
18527;BME280;9393;42.158;24.748;2023-02-14T06:26:15;100782.34;;;7.40;47.48
18527;BME280;9393;42.158;24.748;2023-02-14T06:29:19;100776.13;;;7.57;47.30
18527;BME280;9393;42.158;24.748;2023-02-14T06:32:24;100773.91;;;7.79;46.49
18527;BME280;9393;42.158;24.748;2023-02-14T06:35:28;100777.44;;;7.92;46.26
18527;BME280;9393;42.158;24.748;2023-02-14T06:38:32;100779.81;;;8.09;46.15
18527;BME280;9393;42.158;24.748;2023-02-14T06:41:36;100783.59;;;8.32;45.72
18527;BME280;9393;42.158;24.748;2023-02-14T06:44:39;100776.44;;;8.36;45.34
18527;BME280;9393;42.158;24.748;2023-02-14T06:47:45;100780.22;;;8.44;45.42
18527;BME280;9393;42.158;24.748;2023-02-14T06:50:49;100788.69;;;8.60;44.68
18527;BME280;9393;42.158;24.748;2023-02-14T06:53:53;100784.66;;;8.69;44.91
18527;BME280;9393;42.158;24.748;2023-02-14T06:56:57;100787.78;;;8.61;44.87
18527;BME280;9393;42.158;24.748;2023-02-14T07:00:01;100786.69;;;8.91;44.19
18527;BME280;9393;42.158;24.748;2023-02-14T07:03:07;100788.13;;;9.34;43.72
18527;BME280;9393;42.158;24.748;2023-02-14T07:06:11;100782.78;;;9.23;43.82
18527;BME280;9393;42.158;24.748;2023-02-14T07:09:14;100779.47;;;9.46;43.26
18527;BME280;9393;42.158;24.748;2023-02-14T07:12:19;100783.91;;;9.70;43.09
18527;BME280;9393;42.158;24.748;2023-02-14T07:15:23;100780.97;;;9.99;42.44
18527;BME280;9393;42.158;24.748;2023-02-14T07:18:28;100781.38;;;10.06;42.47
18527;BME280;9393;42.158;24.748;2023-02-14T07:21:32;100780.59;;;10.29;42.24
18527;BME280;9393;42.158;24.748;2023-02-14T07:24:36;100782.75;;;9.86;42.83
18527;BME280;9393;42.158;24.748;2023-02-14T07:27:40;100773.75;;;10.16;42.49
18527;BME280;9393;42.158;24.748;2023-02-14T07:30:43;100777.66;;;10.34;42.15
18527;BME280;9393;42.158;24.748;2023-02-14T07:33:49;100778.16;;;10.39;42.62
18527;BME280;9393;42.158;24.748;2023-02-14T07:36:53;100770.44;;;10.61;41.90
18527;BME280;9393;42.158;24.748;2023-02-14T07:39:57;100766.28;;;9.98;42.85
18527;BME280;9393;42.158;24.748;2023-02-14T07:43:01;100772.00;;;10.40;42.60
18527;BME280;9393;42.158;24.748;2023-02-14T07:46:04;100756.84;;;10.45;42.67
18527;BME280;9393;42.158;24.748;2023-02-14T07:49:11;100765.06;;;10.86;41.77
18527;BME280;9393;42.158;24.748;2023-02-14T07:52:15;100768.16;;;10.56;42.19
18527;BME280;9393;42.158;24.748;2023-02-14T07:55:18;100760.06;;;10.72;42.30
18527;BME280;9393;42.158;24.748;2023-02-14T07:58:22;100757.59;;;10.82;42.14
18527;BME280;9393;42.158;24.748;2023-02-14T08:01:26;100762.09;;;11.26;41.47
18527;BME280;9393;42.158;24.748;2023-02-14T08:04:32;100758.94;;;11.44;41.32
18527;BME280;9393;42.158;24.748;2023-02-14T08:07:35;100756.06;;;11.58;41.02
18527;BME280;9393;42.158;24.748;2023-02-14T08:10:40;100760.94;;;11.52;40.98
18527;BME280;9393;42.158;24.748;2023-02-14T08:13:44;100768.09;;;11.83;41.00
18527;BME280;9393;42.158;24.748;2023-02-14T08:16:48;100767.88;;;11.75;41.12
18527;BME280;9393;42.158;24.748;2023-02-14T08:19:53;100774.22;;;11.49;41.16
18527;BME280;9393;42.158;24.748;2023-02-14T08:22:57;100769.50;;;11.76;41.11
18527;BME280;9393;42.158;24.748;2023-02-14T08:26:01;100776.38;;;11.66;41.26
18527;BME280;9393;42.158;24.748;2023-02-14T08:29:06;100785.53;;;11.60;41.24
18527;BME280;9393;42.158;24.748;2023-02-14T08:32:10;100777.22;;;11.66;41.36
18527;BME280;9393;42.158;24.748;2023-02-14T08:35:15;100773.41;;;12.04;40.61
18527;BME280;9393;42.158;24.748;2023-02-14T08:38:19;100776.41;;;11.99;40.66
18527;BME280;9393;42.158;24.748;2023-02-14T08:41:23;100786.13;;;11.97;40.49
18527;BME280;9393;42.158;24.748;2023-02-14T08:44:27;100800.44;;;11.82;40.74
18527;BME280;9393;42.158;24.748;2023-02-14T08:47:31;100783.03;;;12.03;40.50
18527;BME280;9393;42.158;24.748;2023-02-14T08:50:39;100775.16;;;12.26;40.18
18527;BME280;9393;42.158;24.748;2023-02-14T08:53:43;100778.81;;;12.34;39.96
18527;BME280;9393;42.158;24.748;2023-02-14T08:56:47;100764.22;;;12.95;38.92
18527;BME280;9393;42.158;24.748;2023-02-14T08:59:51;100762.78;;;12.91;39.13
18527;BME280;9393;42.158;24.748;2023-02-14T09:02:55;100759.06;;;12.73;39.57
18527;BME280;9393;42.158;24.748;2023-02-14T09:06:03;100764.50;;;12.81;39.15
18527;BME280;9393;42.158;24.748;2023-02-14T09:09:07;100743.72;;;13.21;38.57
18527;BME280;9393;42.158;24.748;2023-02-14T09:12:11;100742.63;;;13.03;38.77
18527;BME280;9393;42.158;24.748;2023-02-14T09:15:14;100743.22;;;13.27;38.25
18527;BME280;9393;42.158;24.748;2023-02-14T09:18:19;100732.44;;;13.51;37.69
18527;BME280;9393;42.158;24.748;2023-02-14T09:21:26;100733.09;;;13.83;37.23
18527;BME280;9393;42.158;24.748;2023-02-14T09:24:31;100727.16;;;13.21;37.82
18527;BME280;9393;42.158;24.748;2023-02-14T09:27:35;100737.47;;;13.73;37.26
18527;BME280;9393;42.158;24.748;2023-02-14T09:30:39;100733.44;;;13.69;37.40
18527;BME280;9393;42.158;24.748;2023-02-14T09:33:43;100720.38;;;13.39;37.58
18527;BME280;9393;42.158;24.748;2023-02-14T09:37:09;100714.84;;;13.11;37.95
18527;BME280;9393;42.158;24.748;2023-02-14T09:40:16;100718.47;;;12.99;38.54
18527;BME280;9393;42.158;24.748;2023-02-14T09:43:24;100709.78;;;12.99;38.79
18527;BME280;9393;42.158;24.748;2023-02-14T09:46:40;100718.84;;;12.95;39.06
18527;BME280;9393;42.158;24.748;2023-02-14T09:49:46;100712.38;;;13.10;38.07
18527;BME280;9393;42.158;24.748;2023-02-14T09:52:55;100700.44;;;13.57;37.49
18527;BME280;9393;42.158;24.748;2023-02-14T09:56:06;100698.94;;;13.54;36.82
18527;BME280;9393;42.158;24.748;2023-02-14T09:59:16;100695.50;;;13.63;36.52
18527;BME280;9393;42.158;24.748;2023-02-14T10:02:39;100698.25;;;13.62;37.02
18527;BME280;9393;42.158;24.748;2023-02-14T10:05:53;100696.09;;;13.77;36.58
18527;BME280;9393;42.158;24.748;2023-02-14T10:09:07;100686.13;;;13.61;36.94
18527;BME280;9393;42.158;24.748;2023-02-14T10:12:20;100688.22;;;13.77;36.99
18527;BME280;9393;42.158;24.748;2023-02-14T10:15:27;100678.91;;;14.12;35.71
18527;BME280;9393;42.158;24.748;2023-02-14T10:18:38;100680.53;;;14.13;35.43
18527;BME280;9393;42.158;24.748;2023-02-14T10:21:49;100673.78;;;14.21;35.38
18527;BME280;9393;42.158;24.748;2023-02-14T10:24:57;100662.66;;;14.47;35.11
18527;BME280;9393;42.158;24.748;2023-02-14T10:28:08;100663.28;;;13.92;35.72
18527;BME280;9393;42.158;24.748;2023-02-14T10:31:19;100665.81;;;14.51;35.15
18527;BME280;9393;42.158;24.748;2023-02-14T10:34:32;100661.91;;;14.74;34.70
18527;BME280;9393;42.158;24.748;2023-02-14T10:37:47;100648.38;;;14.79;34.52
18527;BME280;9393;42.158;24.748;2023-02-14T10:41:27;100652.00;;;14.49;35.08
18527;BME280;9393;42.158;24.748;2023-02-14T10:44:43;100655.16;;;14.62;35.31
18527;BME280;9393;42.158;24.748;2023-02-14T10:47:55;100637.34;;;14.27;35.68
18527;BME280;9393;42.158;24.748;2023-02-14T10:51:03;100631.25;;;14.07;36.35
18527;BME280;9393;42.158;24.748;2023-02-14T10:54:18;100629.31;;;14.29;35.59
18527;BME280;9393;42.158;24.748;2023-02-14T10:57:27;100629.34;;;14.57;35.69
18527;BME280;9393;42.158;24.748;2023-02-14T11:00:34;100625.47;;;14.52;35.64
18527;BME280;9393;42.158;24.748;2023-02-14T11:03:49;100627.25;;;14.23;35.91
18527;BME280;9393;42.158;24.748;2023-02-14T11:06:55;100616.09;;;14.30;36.24
18527;BME280;9393;42.158;24.748;2023-02-14T11:10:00;100615.81;;;14.24;36.35
18527;BME280;9393;42.158;24.748;2023-02-14T11:13:25;100615.41;;;14.47;35.66
18527;BME280;9393;42.158;24.748;2023-02-14T11:16:31;100607.72;;;14.73;35.12
18527;BME280;9393;42.158;24.748;2023-02-14T11:19:36;100604.31;;;15.00;34.68
18527;BME280;9393;42.158;24.748;2023-02-14T11:22:40;100599.84;;;15.20;34.17
18527;BME280;9393;42.158;24.748;2023-02-14T11:25:49;100597.28;;;15.28;34.56
18527;BME280;9393;42.158;24.748;2023-02-14T11:28:57;100596.31;;;15.29;34.78
18527;BME280;9393;42.158;24.748;2023-02-14T11:32:08;100594.34;;;15.13;35.74
18527;BME280;9393;42.158;24.748;2023-02-14T11:35:19;100604.78;;;15.23;35.74
18527;BME280;9393;42.158;24.748;2023-02-14T11:38:27;100593.63;;;15.38;35.53
18527;BME280;9393;42.158;24.748;2023-02-14T11:41:51;100591.34;;;14.98;35.85
18527;BME280;9393;42.158;24.748;2023-02-14T11:44:57;100586.22;;;14.97;35.61
18527;BME280;9393;42.158;24.748;2023-02-14T11:48:22;100585.25;;;14.98;35.78
18527;BME280;9393;42.158;24.748;2023-02-14T11:51:42;100595.94;;;15.24;35.72
18527;BME280;9393;42.158;24.748;2023-02-14T11:54:46;100581.19;;;14.76;36.04
18527;BME280;9393;42.158;24.748;2023-02-14T11:57:51;100572.34;;;14.77;36.06
18527;BME280;9393;42.158;24.748;2023-02-14T12:00:58;100570.44;;;14.70;36.23
18527;BME280;9393;42.158;24.748;2023-02-14T12:04:05;100563.81;;;14.75;35.77
18527;BME280;9393;42.158;24.748;2023-02-14T12:07:19;100566.81;;;14.34;36.67
18527;BME280;9393;42.158;24.748;2023-02-14T12:10:26;100564.00;;;14.45;36.59
18527;BME280;9393;42.158;24.748;2023-02-14T12:13:31;100559.84;;;14.33;36.68
18527;BME280;9393;42.158;24.748;2023-02-14T12:16:41;100561.97;;;14.20;36.84
18527;BME280;9393;42.158;24.748;2023-02-14T12:19:52;100555.91;;;14.09;37.19
18527;BME280;9393;42.158;24.748;2023-02-14T12:23:01;100548.00;;;14.19;36.33
18527;BME280;9393;42.158;24.748;2023-02-14T12:26:14;100553.25;;;14.00;37.29
18527;BME280;9393;42.158;24.748;2023-02-14T12:29:23;100558.19;;;14.32;36.75
18527;BME280;9393;42.158;24.748;2023-02-14T12:32:31;100566.22;;;14.21;36.52
18527;BME280;9393;42.158;24.748;2023-02-14T12:35:41;100554.25;;;13.99;36.96
18527;BME280;9393;42.158;24.748;2023-02-14T12:38:58;100541.13;;;14.08;37.35
18527;BME280;9393;42.158;24.748;2023-02-14T12:42:16;100551.47;;;13.81;38.00
18527;BME280;9393;42.158;24.748;2023-02-14T12:45:43;100545.38;;;13.42;38.28
18527;BME280;9393;42.158;24.748;2023-02-14T12:49:10;100552.28;;;12.73;39.63
18527;BME280;9393;42.158;24.748;2023-02-14T12:53:00;100544.50;;;12.62;39.91
18527;BME280;9393;42.158;24.748;2023-02-14T12:56:17;100537.97;;;12.47;40.51
18527;BME280;9393;42.158;24.748;2023-02-14T12:59:28;100528.94;;;12.91;39.97
18527;BME280;9393;42.158;24.748;2023-02-14T13:02:52;100536.22;;;12.57;40.21
18527;BME280;9393;42.158;24.748;2023-02-14T13:06:03;100541.72;;;12.54;40.63
18527;BME280;9393;42.158;24.748;2023-02-14T13:09:20;100542.03;;;12.60;40.37
18527;BME280;9393;42.158;24.748;2023-02-14T13:12:33;100540.97;;;12.42;41.16
18527;BME280;9393;42.158;24.748;2023-02-14T13:15:43;100542.59;;;12.34;41.31
18527;BME280;9393;42.158;24.748;2023-02-14T13:18:58;100530.47;;;12.12;41.65
18527;BME280;9393;42.158;24.748;2023-02-14T13:22:09;100541.22;;;12.39;40.93
18527;BME280;9393;42.158;24.748;2023-02-14T13:25:22;100543.75;;;12.71;40.49
18527;BME280;9393;42.158;24.748;2023-02-14T13:28:32;100537.06;;;12.57;40.57
18527;BME280;9393;42.158;24.748;2023-02-14T13:31:39;100557.13;;;12.47;40.65
18527;BME280;9393;42.158;24.748;2023-02-14T13:34:45;100539.75;;;12.46;41.05
18527;BME280;9393;42.158;24.748;2023-02-14T13:37:53;100553.69;;;12.77;40.42
18527;BME280;9393;42.158;24.748;2023-02-14T13:40:59;100550.56;;;12.62;40.54
18527;BME280;9393;42.158;24.748;2023-02-14T13:44:07;100545.00;;;12.46;41.01
18527;BME280;9393;42.158;24.748;2023-02-14T13:47:18;100558.06;;;12.26;41.49
18527;BME280;9393;42.158;24.748;2023-02-14T13:50:22;100568.53;;;12.26;41.86
18527;BME280;9393;42.158;24.748;2023-02-14T13:53:33;100575.69;;;12.03;42.26
18527;BME280;9393;42.158;24.748;2023-02-14T13:56:37;100577.28;;;12.15;42.40
18527;BME280;9393;42.158;24.748;2023-02-14T13:59:41;100583.44;;;12.14;42.25
18527;BME280;9393;42.158;24.748;2023-02-14T14:02:50;100579.75;;;11.96;42.44
18527;BME280;9393;42.158;24.748;2023-02-14T14:06:01;100590.28;;;12.05;42.42
18527;BME280;9393;42.158;24.748;2023-02-14T14:09:09;100592.63;;;12.08;42.51
18527;BME280;9393;42.158;24.748;2023-02-14T14:16:23;100590.34;;;11.83;42.82
18527;BME280;9393;42.158;24.748;2023-02-14T14:19:37;100595.19;;;11.99;42.65
18527;BME280;9393;42.158;24.748;2023-02-14T14:22:46;100591.78;;;11.76;43.00
18527;BME280;9393;42.158;24.748;2023-02-14T14:25:51;100584.44;;;11.59;43.45
18527;BME280;9393;42.158;24.748;2023-02-14T14:28:55;100583.53;;;11.49;43.46
18527;BME280;9393;42.158;24.748;2023-02-14T14:32:07;100585.53;;;11.56;43.17
18527;BME280;9393;42.158;24.748;2023-02-14T14:35:17;100592.69;;;11.54;43.26
18527;BME280;9393;42.158;24.748;2023-02-14T14:38:23;100590.44;;;11.39;43.72
18527;BME280;9393;42.158;24.748;2023-02-14T14:41:29;100585.81;;;11.31;43.74
18527;BME280;9393;42.158;24.748;2023-02-14T14:44:34;100594.47;;;11.21;43.88
18527;BME280;9393;42.158;24.748;2023-02-14T14:47:41;100582.19;;;10.89;44.70
18527;BME280;9393;42.158;24.748;2023-02-14T14:50:46;100590.00;;;11.00;44.55
18527;BME280;9393;42.158;24.748;2023-02-14T14:53:54;100594.72;;;10.73;44.99
18527;BME280;9393;42.158;24.748;2023-02-14T14:57:01;100582.41;;;10.64;45.35
18527;BME280;9393;42.158;24.748;2023-02-14T15:00:22;100594.47;;;10.54;45.62
18527;BME280;9393;42.158;24.748;2023-02-14T15:03:29;100597.53;;;10.13;46.71
18527;BME280;9393;42.158;24.748;2023-02-14T15:06:33;100601.47;;;10.19;46.67
18527;BME280;9393;42.158;24.748;2023-02-14T15:09:37;100594.94;;;10.13;46.87
18527;BME280;9393;42.158;24.748;2023-02-14T15:12:46;100602.09;;;9.98;47.56
18527;BME280;9393;42.158;24.748;2023-02-14T15:16:07;100596.28;;;9.95;47.52
18527;BME280;9393;42.158;24.748;2023-02-14T15:19:16;100594.38;;;9.73;48.52
18527;BME280;9393;42.158;24.748;2023-02-14T15:22:25;100611.16;;;9.69;48.80
18527;BME280;9393;42.158;24.748;2023-02-14T15:25:32;100621.53;;;9.58;49.28
18527;BME280;9393;42.158;24.748;2023-02-14T15:28:38;100614.66;;;9.57;48.95
18527;BME280;9393;42.158;24.748;2023-02-14T15:31:41;100610.00;;;9.49;49.47
18527;BME280;9393;42.158;24.748;2023-02-14T15:34:46;100620.22;;;9.40;49.78
18527;BME280;9393;42.158;24.748;2023-02-14T15:37:51;100615.34;;;9.35;49.96
18527;BME280;9393;42.158;24.748;2023-02-14T15:40:55;100618.69;;;9.37;49.86
18527;BME280;9393;42.158;24.748;2023-02-14T15:44:02;100628.13;;;9.38;50.13
18527;BME280;9393;42.158;24.748;2023-02-14T15:47:06;100633.16;;;9.29;50.22
18527;BME280;9393;42.158;24.748;2023-02-14T15:50:13;100622.31;;;9.47;49.98
18527;BME280;9393;42.158;24.748;2023-02-14T15:53:29;100609.63;;;9.30;50.14
18527;BME280;9393;42.158;24.748;2023-02-14T15:56:42;100610.56;;;9.29;50.00
18527;BME280;9393;42.158;24.748;2023-02-14T15:59:49;100615.47;;;9.21;50.50
18527;BME280;9393;42.158;24.748;2023-02-14T16:02:55;100605.00;;;9.10;50.46
18527;BME280;9393;42.158;24.748;2023-02-14T16:06:03;100615.06;;;9.14;50.68
18527;BME280;9393;42.158;24.748;2023-02-14T16:09:23;100612.19;;;9.06;50.87
18527;BME280;9393;42.158;24.748;2023-02-14T16:12:31;100615.81;;;8.91;51.54
18527;BME280;9393;42.158;24.748;2023-02-14T16:15:39;100625.41;;;8.78;51.74
18527;BME280;9393;42.158;24.748;2023-02-14T16:18:49;100620.31;;;8.89;51.74
18527;BME280;9393;42.158;24.748;2023-02-14T16:21:54;100619.69;;;8.86;51.82
18527;BME280;9393;42.158;24.748;2023-02-14T16:24:58;100617.28;;;8.95;51.75
18527;BME280;9393;42.158;24.748;2023-02-14T16:28:03;100620.06;;;8.42;52.89
18527;BME280;9393;42.158;24.748;2023-02-14T16:31:14;100615.53;;;8.58;52.52
18527;BME280;9393;42.158;24.748;2023-02-14T16:34:19;100622.16;;;8.62;52.62
18527;BME280;9393;42.158;24.748;2023-02-14T16:37:24;100626.34;;;8.65;52.69
18527;BME280;9393;42.158;24.748;2023-02-14T16:40:30;100631.22;;;8.69;52.71
18527;BME280;9393;42.158;24.748;2023-02-14T16:43:34;100629.34;;;8.71;52.24